.
WxDataArchive / Data Records for 2011-09-17
2011-09-16 September 2011 2011-09-18

Data Records for Saturday, 17 September 2011

Time	Temp	Chill	HIndex	Humid	Dewpt	 Wind 	HiWind	WindDir	Rain 	Barom 
-----	----	-----	------	-----	-----	------	------	-------	-----	----- 
00:00	53.2	53.2	53.2	69	43.3	1	5	90	0.00	30.299 
00:05	53.1	53.1	53.1	70	43.6	0	3	68	0.00	30.299 
00:10	52.9	52.9	52.9	70	43.4	0	0	---	0.00	30.299 
00:15	52.9	52.9	52.9	71	43.8	0	1	68	0.00	30.301 
00:20	52.8	52.8	52.8	71	43.7	0	2	68	0.00	30.301 
00:25	52.8	52.8	52.8	72	44.0	0	1	68	0.00	30.301 
00:30	52.6	52.6	52.6	72	43.8	0	2	68	0.00	30.306 
00:35	52.5	52.5	52.5	72	43.7	0	2	68	0.00	30.306 
00:40	52.5	52.5	52.5	72	43.7	1	2	68	0.00	30.306 
00:45	52.5	52.5	52.5	72	43.7	0	2	68	0.00	30.300 
00:50	52.3	52.3	52.3	72	43.5	1	3	68	0.00	30.300 
00:55	52.3	52.3	52.3	72	43.5	1	3	68	0.00	30.300 
01:00	52.3	52.3	52.3	71	43.2	1	3	68	0.00	30.298 
01:05	52.3	52.3	52.3	72	43.5	1	3	68	0.00	30.298 
01:10	52.2	52.2	52.2	72	43.4	0	2	68	0.00	30.298 
01:15	52.2	52.2	52.2	72	43.4	1	2	68	0.00	30.290 
01:20	52.2	52.2	52.2	72	43.4	1	3	68	0.00	30.290 
01:25	52.0	52.0	52.0	72	43.3	1	4	68	0.00	30.290 
01:30	51.9	51.9	51.9	73	43.5	2	4	90	0.00	30.282 
01:35	51.9	51.9	51.9	73	43.5	1	5	90	0.00	30.282 
01:40	51.9	51.9	51.9	73	43.5	1	5	90	0.00	30.282 
01:45	51.7	51.7	51.7	73	43.3	1	3	90	0.00	30.282 
01:50	51.7	51.7	51.7	73	43.3	0	2	90	0.00	30.282 
01:55	51.7	51.7	51.7	73	43.3	0	2	90	0.00	30.282 
02:00	51.7	51.7	51.7	73	43.3	0	0	---	0.00	30.292 
02:05	51.7	51.7	51.7	73	43.3	0	0	---	0.00	30.292 
02:10	51.6	51.6	51.6	73	43.2	0	0	---	0.00	30.292 
02:15	51.6	51.6	51.6	74	43.6	0	0	---	0.00	30.297 
02:20	51.4	51.4	51.4	74	43.4	0	0	---	0.00	30.297 
02:25	51.3	51.3	51.3	74	43.3	0	0	---	0.00	30.297 
02:30	51.1	51.1	51.1	75	43.5	0	0	---	0.00	30.299 
02:35	51.0	51.0	51.0	76	43.7	0	0	---	0.00	30.299 
02:40	51.0	51.0	51.0	76	43.7	0	0	---	0.00	30.299 
02:45	50.8	50.8	50.8	76	43.5	0	0	---	0.00	30.297 
02:50	50.8	50.8	50.8	76	43.5	0	3	90	0.00	30.297 
02:55	51.0	51.0	51.0	76	43.7	0	3	90	0.00	30.297 
03:00	51.0	51.0	51.0	76	43.7	0	0	---	0.00	30.294 
03:05	51.0	51.0	51.0	76	43.7	0	0	---	0.00	30.294 
03:10	51.0	51.0	51.0	77	44.0	0	0	---	0.00	30.294 
03:15	51.0	51.0	51.0	77	44.0	0	0	---	0.00	30.294 
03:20	50.8	50.8	50.8	77	43.9	0	0	---	0.00	30.294 
03:25	50.8	50.8	50.8	77	43.9	0	0	---	0.00	30.294 
03:30	50.8	50.8	50.8	77	43.9	0	0	---	0.00	30.296 
03:35	50.8	50.8	50.8	76	43.5	0	0	---	0.00	30.296 
03:40	50.7	50.7	50.7	76	43.4	0	1	90	0.00	30.296 
03:45	50.7	50.7	50.7	75	43.1	0	0	---	0.00	30.306 
03:50	50.7	50.7	50.7	75	43.1	0	0	---	0.00	30.306 
03:55	50.7	50.7	50.7	75	43.1	0	0	---	0.00	30.306 
04:00	50.7	50.7	50.7	75	43.1	0	0	---	0.00	30.306 
04:05	50.7	50.7	50.7	75	43.1	0	1	90	0.00	30.306 
04:10	50.8	50.8	50.8	75	43.2	0	1	90	0.00	30.306 
04:15	50.8	50.8	50.8	74	42.8	0	2	90	0.00	30.308 
04:20	50.8	50.8	50.8	74	42.8	0	0	---	0.00	30.308 
04:25	50.8	50.8	50.8	74	42.8	0	1	90	0.00	30.308 
04:30	50.8	50.8	50.8	74	42.8	0	2	90	0.00	30.301 
04:35	50.8	50.8	50.8	74	42.8	0	0	---	0.00	30.301 
04:40	50.8	50.8	50.8	74	42.8	0	2	90	0.00	30.301 
04:45	50.8	50.8	50.8	74	42.8	0	1	90	0.00	30.301 
04:50	50.8	50.8	50.8	73	42.5	0	1	90	0.00	30.301 
04:55	50.7	50.7	50.7	74	42.7	0	1	90	0.00	30.301 
05:00	50.7	50.7	50.7	74	42.7	0	2	90	0.00	30.302 
05:05	50.7	50.7	50.7	74	42.7	0	0	---	0.00	30.302 
05:10	50.7	50.7	50.7	74	42.7	0	1	90	0.00	30.302 
05:15	50.5	50.5	50.5	74	42.5	0	0	---	0.00	30.305 
05:20	50.5	50.5	50.5	74	42.5	0	2	90	0.00	30.305 
05:25	50.5	50.5	50.5	73	42.2	0	2	90	0.00	30.305 
05:30	50.5	50.5	50.5	74	42.5	0	2	90	0.00	30.297 
05:35	50.5	50.5	50.5	74	42.5	0	2	90	0.00	30.297 
05:40	50.5	50.5	50.5	74	42.5	0	1	90	0.00	30.297 
05:45	50.5	50.5	50.5	74	42.5	0	3	90	0.00	30.303 
05:50	50.5	50.5	50.5	74	42.5	0	2	90	0.00	30.303 
05:55	50.5	50.5	50.5	74	42.5	0	2	90	0.00	30.303 
06:00	50.5	50.5	50.5	74	42.5	0	2	90	0.00	30.301 
06:05	50.5	50.5	50.5	73	42.2	1	3	90	0.00	30.301 
06:10	50.5	50.5	50.5	74	42.5	0	2	90	0.00	30.301 
06:15	50.7	50.7	50.7	74	42.7	0	1	90	0.00	30.311 
06:20	50.7	50.7	50.7	74	42.7	0	2	90	0.00	30.311 
06:25	50.7	50.7	50.7	74	42.7	0	1	90	0.00	30.311 
06:30	50.7	50.7	50.7	74	42.7	0	1	90	0.00	30.315 
06:35	50.7	50.7	50.7	74	42.7	0	0	---	0.00	30.315 
06:40	50.7	50.7	50.7	74	42.7	0	1	90	0.00	30.315 
06:45	50.7	50.7	50.7	74	42.7	0	1	90	0.00	30.315 
06:50	50.7	50.7	50.7	74	42.7	0	2	90	0.00	30.315 
06:55	50.7	50.7	50.7	75	43.1	0	0	---	0.00	30.315 
07:00	50.7	50.7	50.7	74	42.7	0	1	90	0.00	30.318 
07:05	50.7	50.7	50.7	75	43.1	0	1	90	0.00	30.318 
07:10	50.7	50.7	50.7	75	43.1	0	0	---	0.00	30.318 
07:15	50.7	50.7	50.7	75	43.1	0	0	---	0.00	30.322 
07:20	50.7	50.7	50.7	76	43.4	0	0	---	0.00	30.322 
07:25	50.7	50.7	50.7	76	43.4	0	1	90	0.00	30.322 
07:30	50.7	50.7	50.7	76	43.4	0	0	---	0.00	30.331 
07:35	50.7	50.7	50.7	76	43.4	0	1	90	0.00	30.331 
07:40	50.5	50.5	50.5	76	43.2	0	0	---	0.00	30.331 
07:45	50.7	50.7	50.7	76	43.4	0	1	90	0.00	30.332 
07:50	50.7	50.7	50.7	76	43.4	0	1	90	0.00	30.332 
07:55	50.7	50.7	50.7	77	43.8	0	0	---	0.00	30.332 
08:00	50.7	50.7	50.7	77	43.8	0	0	---	0.00	30.332 
08:05	50.7	50.7	50.7	77	43.8	0	1	90	0.00	30.332 
08:10	50.8	50.8	50.8	77	43.9	0	1	90	0.00	30.332 
08:15	50.8	50.8	50.8	77	43.9	0	3	90	0.00	30.332 
08:20	50.8	50.8	50.8	77	43.9	0	3	90	0.00	30.332 
08:25	51.0	51.0	51.0	78	44.4	0	1	90	0.00	30.332 
08:30	51.0	51.0	51.0	78	44.4	0	1	90	0.00	30.334 
08:35	51.1	51.1	51.1	78	44.5	0	3	90	0.00	30.334 
08:40	51.1	51.1	51.1	78	44.5	0	2	90	0.00	30.334 
08:45	51.3	51.3	51.3	79	45.0	0	2	90	0.00	30.332 
08:50	51.4	51.4	51.4	79	45.1	0	3	90	0.00	30.332 
08:55	51.6	51.6	51.6	79	45.3	0	2	90	0.00	30.332 
09:00	51.9	51.9	51.9	78	45.3	0	3	90	0.00	30.337 
09:05	52.0	52.0	52.0	78	45.4	0	2	90	0.00	30.337 
09:10	52.2	52.2	52.2	78	45.5	0	3	90	0.00	30.337 
09:15	52.3	52.3	52.3	77	45.3	1	3	90	0.00	30.340 
09:20	52.5	52.5	52.5	77	45.5	1	3	90	0.00	30.340 
09:25	52.8	52.8	52.8	78	46.1	0	2	90	0.00	30.340 
09:30	52.9	52.9	52.9	77	45.9	1	4	112	0.00	30.334 
09:35	53.1	53.1	53.1	77	46.1	1	3	112	0.00	30.334 
09:40	53.1	53.1	53.1	77	46.1	1	4	112	0.00	30.334 
09:45	53.2	53.2	53.2	77	46.2	1	4	112	0.00	30.332 
09:50	53.3	53.3	53.3	76	45.9	1	5	112	0.00	30.332 
09:55	53.5	53.5	53.5	76	46.1	0	3	90	0.00	30.332 
10:00	53.6	53.6	53.6	76	46.2	1	6	90	0.00	30.329 
10:05	53.8	53.8	53.8	76	46.4	2	4	90	0.00	30.329 
10:10	53.9	53.9	53.9	76	46.5	2	6	90	0.00	30.329 
10:15	54.1	54.1	54.1	75	46.4	1	3	112	0.00	30.333 
10:20	54.4	54.4	54.4	75	46.6	1	6	112	0.00	30.333 
10:25	54.7	54.7	54.7	74	46.6	1	4	112	0.00	30.333 
10:30	55.0	55.0	55.0	75	47.2	1	5	90	0.00	30.335 
10:35	55.1	55.1	55.1	74	47.0	1	4	90	0.00	30.335 
10:40	55.3	55.3	55.3	73	46.8	2	7	45	0.00	30.335 
10:45	55.4	55.4	55.4	73	46.9	1	3	45	0.00	30.340 
10:50	55.6	55.6	55.6	72	46.7	1	5	90	0.00	30.340 
10:55	55.7	55.7	55.7	72	46.8	1	4	90	0.00	30.340 
11:00	56.0	56.0	56.0	72	47.1	2	6	90	0.00	30.342 
11:05	56.5	56.5	56.5	71	47.2	1	4	90	0.00	30.342 
11:10	56.9	56.9	56.9	71	47.6	1	5	90	0.00	30.342 
11:15	58.0	58.0	58.0	69	47.9	1	5	90	0.00	30.338 
11:20	58.6	58.6	58.6	66	47.3	3	6	90	0.00	30.338 
11:25	58.9	58.9	58.9	65	47.2	3	9	90	0.00	30.338 
11:30	59.0	59.0	59.0	66	47.7	2	5	90	0.00	30.337 
11:35	59.0	59.0	59.0	64	46.8	3	7	90	0.00	30.337 
11:40	59.2	59.2	59.2	64	47.0	3	6	90	0.00	30.337 
11:45	59.2	59.2	59.2	62	46.2	3	6	90	0.00	30.332 
11:50	59.2	59.2	59.2	63	46.6	2	5	90	0.00	30.332 
11:55	59.2	59.2	59.2	63	46.6	3	5	90	0.00	30.332 
12:00	59.5	59.5	59.5	62	46.5	2	5	90	0.00	30.329 
12:05	59.8	59.8	59.8	60	45.9	3	10	90	0.00	30.329 
12:10	60.4	60.4	60.4	60	46.4	3	7	90	0.00	30.329 
12:15	61.3	61.3	61.3	58	46.4	3	6	90	0.00	30.326 
12:20	62.0	62.0	62.0	57	46.6	3	7	90	0.00	30.326 
12:25	62.4	62.4	62.4	56	46.5	4	10	90	0.00	30.326 
12:30	62.6	62.6	62.6	54	45.7	4	11	90	0.00	30.323 
12:35	62.7	62.7	62.7	54	45.8	2	9	90	0.00	30.323 
12:40	63.2	63.2	63.2	55	46.8	1	4	68	0.00	30.323 
12:45	63.7	63.7	63.7	52	45.7	3	7	90	0.00	30.315 
12:50	64.0	64.0	64.0	52	46.0	3	6	112	0.00	30.315 
12:55	64.2	64.2	64.2	51	45.7	2	8	90	0.00	30.315 
13:00	64.5	64.5	64.5	49	44.9	4	10	90	0.00	30.310 
13:05	64.3	64.3	64.3	49	44.7	4	10	90	0.00	30.310 
13:10	64.5	64.5	64.5	47	43.8	4	9	90	0.00	30.310 
13:15	64.5	64.5	64.5	47	43.8	5	12	90	0.00	30.307 
13:20	64.3	64.3	64.3	48	44.2	4	14	112	0.00	30.307 
13:25	64.8	64.8	64.8	49	45.2	3	7	90	0.00	30.307 
13:30	64.8	64.8	64.8	49	45.2	4	10	90	0.00	30.305 
13:35	64.8	64.8	64.8	46	43.5	3	9	90	0.00	30.305 
13:40	65.0	65.0	65.0	46	43.7	3	10	90	0.00	30.305 
13:45	65.0	65.0	65.0	48	44.8	3	6	90	0.00	30.297 
13:50	65.0	65.0	65.0	47	44.3	4	8	90	0.00	30.297 
13:55	65.2	65.2	65.2	46	43.9	3	7	90	0.00	30.297 
14:00	65.2	65.2	65.2	47	44.5	4	7	90	0.00	30.294 
14:05	65.3	65.3	65.3	46	44.0	3	11	90	0.00	30.294 
14:10	65.6	65.6	65.6	50	46.5	2	9	90	0.00	30.294 
14:15	65.8	65.8	65.8	46	44.4	3	10	90	0.00	30.289 
14:20	66.0	66.0	66.0	45	44.0	3	10	90	0.00	30.289 
14:25	66.0	66.0	66.0	47	45.2	3	9	112	0.00	30.289 
14:30	66.3	66.3	66.3	44	43.7	2	9	68	0.00	30.290 
14:35	66.3	66.3	66.3	43	43.1	3	7	112	0.00	30.290 
14:40	66.3	66.3	66.3	45	44.3	3	7	90	0.00	30.290 
14:45	66.4	66.4	66.4	45	44.4	3	13	90	0.00	30.284 
14:50	66.3	66.3	66.3	45	44.3	3	9	90	0.00	30.284 
14:55	66.6	66.6	66.6	45	44.6	3	5	90	0.00	30.284 
15:00	66.9	66.9	66.9	44	44.3	3	9	90	0.00	30.275 
15:05	66.9	66.9	66.9	45	44.9	3	9	90	0.00	30.275 
15:10	67.1	67.1	67.1	43	43.8	3	9	90	0.00	30.275 
15:15	66.9	66.9	66.9	42	43.1	3	6	90	0.00	30.274 
15:20	66.8	66.8	66.8	43	43.6	3	12	68	0.00	30.274 
15:25	67.1	67.1	67.1	43	43.8	4	10	90	0.00	30.274 
15:30	67.3	67.3	67.3	40	42.1	4	10	90	0.00	30.272 
15:35	66.9	66.9	66.9	41	42.4	4	7	90	0.00	30.272 
15:40	66.9	66.9	66.9	40	41.8	3	10	68	0.00	30.272 
15:45	67.1	67.1	67.1	42	43.2	4	13	90	0.00	30.269 
15:50	66.9	66.9	66.9	42	43.1	4	9	90	0.00	30.269 
15:55	66.8	66.8	66.8	43	43.6	3	10	90	0.00	30.269 
16:00	66.9	66.9	66.9	40	41.8	4	12	90	0.00	30.262 
16:05	66.9	66.9	66.9	42	43.1	3	6	90	0.00	30.262 
16:10	67.1	67.1	67.1	42	43.2	4	11	90	0.00	30.262 
16:15	67.3	67.3	67.3	43	44.0	2	5	90	0.00	30.258 
16:20	67.3	67.3	67.3	40	42.1	3	6	90	0.00	30.258 
16:25	67.1	67.1	67.1	40	42.0	3	9	90	0.00	30.258 
16:30	66.9	66.9	66.9	39	41.1	3	10	90	0.00	30.253 
16:35	66.9	66.9	66.9	39	41.1	3	10	90	0.00	30.253 
16:40	66.9	66.9	66.9	41	42.4	3	9	90	0.00	30.253 
16:45	66.9	66.9	66.9	40	41.8	3	7	90	0.00	30.252 
16:50	66.9	66.9	66.9	42	43.1	3	6	90	0.00	30.252 
16:55	66.9	66.9	66.9	41	42.4	4	12	90	0.00	30.252 
17:00	66.8	66.8	66.8	41	42.3	3	9	90	0.00	30.257 
17:05	66.6	66.6	66.6	43	43.4	3	10	90	0.00	30.257 
17:10	66.8	66.8	66.8	42	43.0	3	7	90	0.00	30.257 
17:15	66.8	66.8	66.8	43	43.6	2	7	68	0.00	30.255 
17:20	66.9	66.9	66.9	42	43.1	3	8	90	0.00	30.255 
17:25	66.8	66.8	66.8	42	43.0	4	12	90	0.00	30.255 
17:30	66.6	66.6	66.6	43	43.4	2	7	90	0.00	30.250 
17:35	66.6	66.6	66.6	43	43.4	3	10	90	0.00	30.250 
17:40	66.6	66.6	66.6	43	43.4	3	7	90	0.00	30.250 
17:45	66.4	66.4	66.4	42	42.6	4	9	90	0.00	30.257 
17:50	66.3	66.3	66.3	41	41.9	4	8	90	0.00	30.257 
17:55	66.1	66.1	66.1	42	42.3	3	9	90	0.00	30.257 
18:00	66.1	66.1	66.1	43	42.9	3	8	90	0.00	30.260 
18:05	66.0	66.0	66.0	41	41.6	4	10	90	0.00	30.260 
18:10	65.8	65.8	65.8	43	42.7	3	7	90	0.00	30.260 
18:15	65.6	65.6	65.6	43	42.5	3	8	90	0.00	30.256 
18:20	65.6	65.6	65.6	42	41.9	5	11	68	0.00	30.256 
18:25	65.5	65.5	65.5	42	41.8	3	7	90	0.00	30.256 
18:30	65.3	65.3	65.3	42	41.6	4	8	90	0.00	30.259 
18:35	65.2	65.2	65.2	42	41.5	3	9	90	0.00	30.259 
18:40	65.0	65.0	65.0	44	42.6	1	4	90	0.00	30.259 
18:45	64.8	64.8	64.8	42	41.2	3	10	90	0.00	30.262 
18:50	64.7	64.7	64.7	43	41.7	2	6	90	0.00	30.262 
18:55	64.7	64.7	64.7	44	42.3	2	5	90	0.00	30.262 
19:00	64.3	64.3	64.3	45	42.5	2	5	68	0.00	30.267 
19:05	64.2	64.2	64.2	46	43.0	2	6	90	0.00	30.267 
19:10	63.9	63.9	63.9	46	42.7	1	5	90	0.00	30.267 
19:15	63.5	63.5	63.5	47	42.9	1	3	90	0.00	30.265 
19:20	63.2	63.2	63.2	48	43.2	2	5	90	0.00	30.265 
19:25	62.9	62.9	62.9	48	42.9	1	3	90	0.00	30.265 
19:30	62.6	62.6	62.6	48	42.6	1	6	68	0.00	30.272 
19:35	62.4	62.4	62.4	49	43.0	1	3	90	0.00	30.272 
19:40	62.0	62.0	62.0	50	43.1	1	3	90	0.00	30.272 
19:45	61.6	61.6	61.6	50	42.8	1	3	90	0.00	30.279 
19:50	61.3	61.3	61.3	51	43.0	0	1	90	0.00	30.279 
19:55	60.9	60.9	60.9	52	43.2	0	1	90	0.00	30.279 
20:00	60.4	60.4	60.4	53	43.2	0	1	90	0.00	30.279 
20:05	59.9	59.9	59.9	54	43.2	0	2	90	0.00	30.279 
20:10	59.6	59.6	59.6	55	43.4	0	2	90	0.00	30.279 
20:15	59.3	59.3	59.3	56	43.6	0	2	90	0.00	30.278 
20:20	59.0	59.0	59.0	56	43.3	0	2	90	0.00	30.278 
20:25	58.7	58.7	58.7	56	43.0	0	2	90	0.00	30.278 
20:30	58.6	58.6	58.6	57	43.4	0	2	90	0.00	30.283 
20:35	58.3	58.3	58.3	57	43.1	0	3	90	0.00	30.283 
20:40	58.0	58.0	58.0	58	43.3	0	2	90	0.00	30.283 
20:45	57.6	57.6	57.6	59	43.4	0	1	90	0.00	30.283 
20:50	57.3	57.3	57.3	60	43.5	0	1	90	0.00	30.283 
20:55	57.0	57.0	57.0	61	43.7	1	3	90	0.00	30.283 
21:00	56.9	56.9	56.9	62	44.0	1	3	90	0.00	30.285 
21:05	56.9	56.9	56.9	63	44.4	1	3	90	0.00	30.285 
21:10	56.7	56.7	56.7	65	45.1	1	3	90	0.00	30.285 
21:15	56.6	56.6	56.6	65	45.0	1	3	90	0.00	30.291 
21:20	56.5	56.5	56.5	66	45.3	1	4	90	0.00	30.291 
21:25	56.3	56.3	56.3	66	45.1	1	5	90	0.00	30.291 
21:30	56.2	56.2	56.2	66	45.0	1	4	90	0.00	30.293 
21:35	56.0	56.0	56.0	67	45.2	1	4	68	0.00	30.293 
21:40	55.9	55.9	55.9	67	45.1	1	3	90	0.00	30.293 
21:45	55.7	55.7	55.7	67	44.9	1	4	90	0.00	30.295 
21:50	55.6	55.6	55.6	67	44.8	2	4	90	0.00	30.295 
21:55	55.4	55.4	55.4	68	45.0	1	3	90	0.00	30.295 
22:00	55.1	55.1	55.1	68	44.7	1	4	90	0.00	30.295 
22:05	55.0	55.0	55.0	69	45.0	1	3	90	0.00	30.295 
22:10	54.8	54.8	54.8	69	44.8	1	4	90	0.00	30.295 
22:15	54.7	54.7	54.7	69	44.7	1	3	90	0.00	30.289 
22:20	54.5	54.5	54.5	69	44.5	1	2	90	0.00	30.289 
22:25	54.4	54.4	54.4	69	44.4	2	4	90	0.00	30.289 
22:30	54.4	54.4	54.4	70	44.8	2	6	90	0.00	30.279 
22:35	54.2	54.2	54.2	70	44.6	1	5	90	0.00	30.279 
22:40	54.1	54.1	54.1	71	44.9	0	3	90	0.00	30.279 
22:45	53.9	53.9	53.9	71	44.7	0	1	90	0.00	30.281 
22:50	53.8	53.8	53.8	71	44.6	0	0	---	0.00	30.281 
22:55	53.6	53.6	53.6	72	44.8	0	2	90	0.00	30.281 
23:00	53.5	53.5	53.5	72	44.7	0	1	90	0.00	30.281 
23:05	53.2	53.2	53.2	73	44.8	0	0	---	0.00	30.281 
23:10	52.9	52.9	52.9	73	44.5	0	0	---	0.00	30.281 
23:15	52.8	52.8	52.8	74	44.7	0	0	---	0.00	30.280 
23:20	52.5	52.5	52.5	75	44.8	0	0	---	0.00	30.280 
23:25	52.3	52.3	52.3	76	45.0	0	0	---	0.00	30.280 
23:30	52.2	52.2	52.2	77	45.2	0	0	---	0.00	30.278 
23:35	52.0	52.0	52.0	77	45.0	0	0	---	0.00	30.278 
23:40	51.7	51.7	51.7	77	44.7	0	0	---	0.00	30.278 
23:45	51.6	51.6	51.6	78	45.0	0	0	---	0.00	30.278 
23:50	51.4	51.4	51.4	79	45.1	0	2	90	0.00	30.278 
23:55	51.3	51.3	51.3	79	45.0	0	0	---	0.00	30.278 

CoCoRaHS
IN-AL-39
A2 Web Hosting
Creative Commons License
GoDaddy
search engine by freefind advanced

loaded 2018-11-22 05:25:40 • last modified 2010-11-18 10:43:29
Privacy PolicyDisclaimer
• wx.awcolley.com is powered by PmWiki v.2002016 •
• all content (unless otherwise noted) © 2018 A W Colley